Thursday, July 30, 2015, 6:59 PM EDT
Back to Local

KMTP, Montauk Airport

Location: Montauk, NY, United States Lat: 41.067
Local Time: 6:59 PM EDT (22:59 GMT) Lon: -71.917
Time Zone: US/Eastern Elev: 6 ft

Show me the last for .
Show Coded

Time T Td Feel RH Dir Speed Gust Alt SLP Vis Weather Sky Remarks
2015-07-30 17:54 77 73 82 87 200° 10 - 29.84 29.84 0 None
2015-07-30 16:54 80 73 85 79 200° 10 22 29.84 29.84 0 None
2015-07-30 15:54 81 74 87 79 200° 13 22 29.85 29.85 0 None
2015-07-30 14:54 80 74 86 81 190° 8 - 29.88 29.87 0 None
2015-07-30 13:54 80 74 86 81 200° 8 18 29.90 29.90 0 6-hr Min Temp (2pm): 78.1°F
6-hr Max Temp (2pm): 82.0°F
2015-07-30 12:54 81 74 87 79 210° 8 - 29.92 29.91 0 None
2015-07-30 11:54 81 74 87 79 200° 9 18 29.92 29.92 0 None
2015-07-30 10:54 82 75 89 79 210° 10 20 29.92 29.92 0 None
2015-07-30 09:54 81 74 87 79 220° 9 17 29.92 29.92 0 None
2015-07-30 08:54 80 73 85 79 220° 9 - 29.94 29.93 0 None
2015-07-30 07:54 78 73 83 84 220° 8 - 29.94 29.93 0 6-hr Min Temp (8am): 75.9°F
6-hr Max Temp (8am): 78.1°F
2015-07-30 06:54 77 73 82 87 220° 8 - 29.93 29.93 0 None
2015-07-30 05:54 76 73 80 90 220° 7 - 29.93 29.93 0 None
2015-07-30 04:54 76 73 80 90 230° 8 - 29.93 29.93 0 None
2015-07-30 03:54 76 73 80 90 220° 8 - 29.93 29.93 0 None
2015-07-30 02:54 77 73 82 87 230° 8 17 29.93 29.93 0 None
2015-07-30 01:54 77 73 82 87 230° 7 - 29.94 29.94 0 6-hr Min Temp (2am): 77.0°F
6-hr Max Temp (2am): 80.1°F
2015-07-30 00:54 78 73 83 84 220° 9 - 29.94 29.94 0 24-hr Min Temp (1am): 72.0°F
24-hr Max Temp (1am): 89.1°F
2015-07-29 23:54 77 73 82 87 220° 7 - 29.94 29.94 0 None
2015-07-29 21:54 78 72 82 81 230° 8 - 29.95 29.95 0 None
2015-07-29 20:54 79 71 83 76 220° 8 - 29.94 29.94 0 None
2015-07-29 19:54 80 70 84 71 220° 7 - 29.94 29.94 0 6-hr Min Temp (8pm): 80.1°F
6-hr Max Temp (8pm): 87.1°F

Support USWX by starting your Amazon purchase here.